sensor_id;sensor_type;location;lat;lon;timestamp;pressure;altitude;pressure_sealevel;temperature;humidity
40730;BME280;26418;50.070;8.436;2023-04-20T00:01:29;100174.69;;;7.26;48.21
40730;BME280;26418;50.070;8.436;2023-04-20T00:03:55;100162.84;;;7.17;48.17
40730;BME280;26418;50.070;8.436;2023-04-20T00:06:20;100163.69;;;7.17;48.32
40730;BME280;26418;50.070;8.436;2023-04-20T00:08:46;100157.22;;;7.13;48.34
40730;BME280;26418;50.070;8.436;2023-04-20T00:11:11;100156.13;;;7.19;48.46
40730;BME280;26418;50.070;8.436;2023-04-20T00:13:36;100148.06;;;7.14;48.58
40730;BME280;26418;50.070;8.436;2023-04-20T00:16:02;100146.47;;;7.08;48.93
40730;BME280;26418;50.070;8.436;2023-04-20T00:18:27;100147.00;;;7.10;49.25
40730;BME280;26418;50.070;8.436;2023-04-20T00:20:52;100154.00;;;7.06;49.32
40730;BME280;26418;50.070;8.436;2023-04-20T00:23:18;100142.97;;;7.02;49.41
40730;BME280;26418;50.070;8.436;2023-04-20T00:25:43;100144.59;;;7.03;49.47
40730;BME280;26418;50.070;8.436;2023-04-20T00:28:08;100130.34;;;6.98;49.68
40730;BME280;26418;50.070;8.436;2023-04-20T00:30:34;100142.16;;;7.02;49.64
40730;BME280;26418;50.070;8.436;2023-04-20T00:32:59;100134.63;;;6.93;49.97
40730;BME280;26418;50.070;8.436;2023-04-20T00:35:24;100129.28;;;6.88;49.85
40730;BME280;26418;50.070;8.436;2023-04-20T00:37:50;100121.47;;;6.97;50.05
40730;BME280;26418;50.070;8.436;2023-04-20T00:40:15;100124.16;;;6.92;50.10
40730;BME280;26418;50.070;8.436;2023-04-20T00:42:41;100126.59;;;6.83;50.12
40730;BME280;26418;50.070;8.436;2023-04-20T00:45:06;100124.72;;;6.84;50.06
40730;BME280;26418;50.070;8.436;2023-04-20T00:47:32;100124.97;;;6.77;50.25
40730;BME280;26418;50.070;8.436;2023-04-20T00:49:57;100125.00;;;6.72;50.66
40730;BME280;26418;50.070;8.436;2023-04-20T00:52:23;100089.78;;;6.53;50.46
40730;BME280;26418;50.070;8.436;2023-04-20T00:54:48;100117.47;;;6.74;50.49
40730;BME280;26418;50.070;8.436;2023-04-20T00:57:14;100104.28;;;6.67;50.96
40730;BME280;26418;50.070;8.436;2023-04-20T00:59:40;100107.78;;;6.68;50.81
40730;BME280;26418;50.070;8.436;2023-04-20T01:02:05;100112.88;;;6.74;51.03
40730;BME280;26418;50.070;8.436;2023-04-20T01:04:33;100108.31;;;6.70;51.17
40730;BME280;26418;50.070;8.436;2023-04-20T01:07:00;100103.75;;;6.70;51.34
40730;BME280;26418;50.070;8.436;2023-04-20T01:09:25;100095.97;;;6.64;51.73
40730;BME280;26418;50.070;8.436;2023-04-20T01:11:51;100096.50;;;6.55;52.03
40730;BME280;26418;50.070;8.436;2023-04-20T01:14:16;100091.94;;;6.61;51.56
40730;BME280;26418;50.070;8.436;2023-04-20T01:16:42;100074.47;;;6.58;51.21
40730;BME280;26418;50.070;8.436;2023-04-20T01:19:09;100081.44;;;6.59;51.09
40730;BME280;26418;50.070;8.436;2023-04-20T01:21:34;100065.34;;;6.54;51.03
40730;BME280;26418;50.070;8.436;2023-04-20T01:24:00;100070.44;;;6.56;51.14
40730;BME280;26418;50.070;8.436;2023-04-20T01:26:25;100068.56;;;6.46;51.64
40730;BME280;26418;50.070;8.436;2023-04-20T01:28:51;100062.66;;;6.49;51.51
40730;BME280;26418;50.070;8.436;2023-04-20T01:31:17;100063.72;;;6.48;51.60
40730;BME280;26418;50.070;8.436;2023-04-20T01:33:42;100061.03;;;6.48;51.78
40730;BME280;26418;50.070;8.436;2023-04-20T01:36:08;100045.72;;;6.38;51.99
40730;BME280;26418;50.070;8.436;2023-04-20T01:38:34;100055.66;;;6.43;52.50
40730;BME280;26418;50.070;8.436;2023-04-20T01:41:07;100052.97;;;6.38;52.39
40730;BME280;26418;50.070;8.436;2023-04-20T01:43:34;100055.94;;;6.36;52.47
40730;BME280;26418;50.070;8.436;2023-04-20T01:46:00;100053.78;;;6.33;53.02
40730;BME280;26418;50.070;8.436;2023-04-20T01:48:25;100059.69;;;6.30;53.03
40730;BME280;26418;50.070;8.436;2023-04-20T01:50:51;100055.09;;;6.25;53.52
40730;BME280;26418;50.070;8.436;2023-04-20T01:53:18;100049.47;;;6.22;53.48
40730;BME280;26418;50.070;8.436;2023-04-20T01:55:43;100048.94;;;6.20;53.77
40730;BME280;26418;50.070;8.436;2023-04-20T01:58:08;100036.31;;;6.20;53.64
40730;BME280;26418;50.070;8.436;2023-04-20T02:00:34;100034.97;;;6.23;53.26
40730;BME280;26418;50.070;8.436;2023-04-20T02:02:59;100039.00;;;6.20;53.92
40730;BME280;26418;50.070;8.436;2023-04-20T02:05:25;100034.44;;;6.16;53.25
40730;BME280;26418;50.070;8.436;2023-04-20T02:07:50;100030.97;;;6.15;53.50
40730;BME280;26418;50.070;8.436;2023-04-20T02:10:16;100038.47;;;6.13;53.09
40730;BME280;26418;50.070;8.436;2023-04-20T02:12:41;100041.66;;;6.10;53.69
40730;BME280;26418;50.070;8.436;2023-04-20T02:15:07;100036.84;;;6.07;53.41
40730;BME280;26418;50.070;8.436;2023-04-20T02:17:33;100039.25;;;6.08;53.49
40730;BME280;26418;50.070;8.436;2023-04-20T02:20:00;100046.25;;;6.04;53.56
40730;BME280;26418;50.070;8.436;2023-04-20T02:22:25;100044.63;;;6.03;53.58
40730;BME280;26418;50.070;8.436;2023-04-20T02:24:51;100031.16;;;5.93;53.88
40730;BME280;26418;50.070;8.436;2023-04-20T02:27:16;100039.50;;;5.91;54.80
40730;BME280;26418;50.070;8.436;2023-04-20T02:29:41;100043.78;;;5.97;55.24
40730;BME280;26418;50.070;8.436;2023-04-20T02:32:06;100023.91;;;5.88;55.57
40730;BME280;26418;50.070;8.436;2023-04-20T02:34:32;100020.13;;;5.84;55.97
40730;BME280;26418;50.070;8.436;2023-04-20T02:36:57;100030.09;;;5.94;56.37
40730;BME280;26418;50.070;8.436;2023-04-20T02:39:23;100026.09;;;6.02;56.35
40730;BME280;26418;50.070;8.436;2023-04-20T02:41:48;100027.72;;;6.03;56.83
40730;BME280;26418;50.070;8.436;2023-04-20T02:44:13;100008.34;;;5.95;56.94
40730;BME280;26418;50.070;8.436;2023-04-20T02:46:38;100022.88;;;6.10;57.03
40730;BME280;26418;50.070;8.436;2023-04-20T02:49:04;100021.81;;;6.11;57.29
40730;BME280;26418;50.070;8.436;2023-04-20T02:51:29;100025.56;;;6.10;57.37
40730;BME280;26418;50.070;8.436;2023-04-20T02:53:56;100016.44;;;6.06;57.73
40730;BME280;26418;50.070;8.436;2023-04-20T02:56:21;100017.50;;;6.05;57.85
40730;BME280;26418;50.070;8.436;2023-04-20T02:58:46;100016.97;;;6.13;58.44
40730;BME280;26418;50.070;8.436;2023-04-20T03:01:16;100019.38;;;6.14;58.94
40730;BME280;26418;50.070;8.436;2023-04-20T03:03:42;100009.47;;;6.05;59.41
40730;BME280;26418;50.070;8.436;2023-04-20T03:06:07;100008.66;;;6.04;60.16
40730;BME280;26418;50.070;8.436;2023-04-20T03:08:32;100008.41;;;6.06;60.58
40730;BME280;26418;50.070;8.436;2023-04-20T03:10:58;100014.31;;;6.13;61.11
40730;BME280;26418;50.070;8.436;2023-04-20T03:13:23;99999.78;;;6.09;61.21
40730;BME280;26418;50.070;8.436;2023-04-20T03:15:48;100001.94;;;6.12;61.99
40730;BME280;26418;50.070;8.436;2023-04-20T03:18:14;100007.59;;;6.16;61.77
40730;BME280;26418;50.070;8.436;2023-04-20T03:20:39;100004.09;;;6.10;62.40
40730;BME280;26418;50.070;8.436;2023-04-20T03:23:04;100005.16;;;6.19;62.47
40730;BME280;26418;50.070;8.436;2023-04-20T03:25:30;99991.72;;;6.09;62.77
40730;BME280;26418;50.070;8.436;2023-04-20T03:27:56;100002.75;;;6.12;62.97
40730;BME280;26418;50.070;8.436;2023-04-20T03:30:21;100013.47;;;6.07;63.43
40730;BME280;26418;50.070;8.436;2023-04-20T03:32:47;100001.41;;;6.10;64.03
40730;BME280;26418;50.070;8.436;2023-04-20T03:35:12;99999.00;;;6.03;64.02
40730;BME280;26418;50.070;8.436;2023-04-20T03:37:37;99995.75;;;5.96;65.04
40730;BME280;26418;50.070;8.436;2023-04-20T03:40:04;100003.53;;;5.97;65.74
40730;BME280;26418;50.070;8.436;2023-04-20T03:42:31;100000.28;;;5.95;65.79
40730;BME280;26418;50.070;8.436;2023-04-20T03:44:56;100007.56;;;6.00;66.29
40730;BME280;26418;50.070;8.436;2023-04-20T03:47:21;99996.25;;;5.98;66.69
40730;BME280;26418;50.070;8.436;2023-04-20T03:49:47;100006.50;;;6.06;66.62
40730;BME280;26418;50.070;8.436;2023-04-20T03:52:12;99999.25;;;6.12;66.53
40730;BME280;26418;50.070;8.436;2023-04-20T03:54:38;99999.00;;;6.08;67.09
40730;BME280;26418;50.070;8.436;2023-04-20T03:57:03;99990.94;;;6.08;67.64
40730;BME280;26418;50.070;8.436;2023-04-20T03:59:29;99987.72;;;6.01;68.07
40730;BME280;26418;50.070;8.436;2023-04-20T04:01:54;99996.84;;;6.00;68.68
40730;BME280;26418;50.070;8.436;2023-04-20T04:04:20;99997.91;;;5.99;69.41
40730;BME280;26418;50.070;8.436;2023-04-20T04:06:46;100001.91;;;5.96;69.87
40730;BME280;26418;50.070;8.436;2023-04-20T04:09:11;99999.78;;;5.98;70.41
40730;BME280;26418;50.070;8.436;2023-04-20T04:11:36;99993.03;;;5.91;71.02
40730;BME280;26418;50.070;8.436;2023-04-20T04:14:02;99998.66;;;5.84;71.63
40730;BME280;26418;50.070;8.436;2023-04-20T04:16:32;99990.59;;;5.69;72.13
40730;BME280;26418;50.070;8.436;2023-04-20T04:18:57;99982.81;;;5.72;72.77
40730;BME280;26418;50.070;8.436;2023-04-20T04:21:23;99994.38;;;5.73;72.94
40730;BME280;26418;50.070;8.436;2023-04-20T04:23:48;99979.88;;;5.63;73.44
40730;BME280;26418;50.070;8.436;2023-04-20T04:26:14;99990.59;;;5.69;74.32
40730;BME280;26418;50.070;8.436;2023-04-20T04:28:39;99991.66;;;5.62;74.36
40730;BME280;26418;50.070;8.436;2023-04-20T04:31:06;99985.47;;;5.57;75.48
40730;BME280;26418;50.070;8.436;2023-04-20T04:33:32;99989.22;;;5.50;75.38
40730;BME280;26418;50.070;8.436;2023-04-20T04:35:58;99984.09;;;5.39;75.94
40730;BME280;26418;50.070;8.436;2023-04-20T04:38:24;99979.78;;;5.32;76.44
40730;BME280;26418;50.070;8.436;2023-04-20T04:40:51;99979.53;;;5.39;76.56
40730;BME280;26418;50.070;8.436;2023-04-20T04:43:17;99976.56;;;5.35;76.66
40730;BME280;26418;50.070;8.436;2023-04-20T04:45:43;99983.03;;;5.40;77.02
40730;BME280;26418;50.070;8.436;2023-04-20T04:48:10;99972.25;;;5.29;77.22
40730;BME280;26418;50.070;8.436;2023-04-20T04:50:39;99979.81;;;5.43;77.47
40730;BME280;26418;50.070;8.436;2023-04-20T04:53:05;99974.72;;;5.46;77.58
40730;BME280;26418;50.070;8.436;2023-04-20T04:55:30;99970.97;;;5.47;77.27
40730;BME280;26418;50.070;8.436;2023-04-20T04:57:56;99985.47;;;5.57;77.01
40730;BME280;26418;50.070;8.436;2023-04-20T05:00:21;99980.63;;;5.43;77.26
40730;BME280;26418;50.070;8.436;2023-04-20T05:02:47;99984.09;;;5.44;76.86
40730;BME280;26418;50.070;8.436;2023-04-20T05:05:13;99987.84;;;5.43;77.63
40730;BME280;26418;50.070;8.436;2023-04-20T05:07:39;99975.22;;;5.33;77.40
40730;BME280;26418;50.070;8.436;2023-04-20T05:10:05;99985.97;;;5.38;77.19
40730;BME280;26418;50.070;8.436;2023-04-20T05:12:31;99975.22;;;5.33;77.44
40730;BME280;26418;50.070;8.436;2023-04-20T05:14:57;99977.91;;;5.33;77.04
40730;BME280;26418;50.070;8.436;2023-04-20T05:17:22;99990.53;;;5.32;77.50
40730;BME280;26418;50.070;8.436;2023-04-20T05:19:47;99985.13;;;5.22;77.87
40730;BME280;26418;50.070;8.436;2023-04-20T05:22:13;99986.47;;;5.30;78.11
40730;BME280;26418;50.070;8.436;2023-04-20T05:24:38;99993.22;;;5.32;78.25
40730;BME280;26418;50.070;8.436;2023-04-20T05:27:03;99992.94;;;5.34;78.42
40730;BME280;26418;50.070;8.436;2023-04-20T05:29:29;99988.94;;;5.47;77.56
40730;BME280;26418;50.070;8.436;2023-04-20T05:31:54;99986.81;;;5.49;77.21
40730;BME280;26418;50.070;8.436;2023-04-20T05:34:19;99987.06;;;5.47;77.40
40730;BME280;26418;50.070;8.436;2023-04-20T05:36:45;99984.66;;;5.51;77.20
40730;BME280;26418;50.070;8.436;2023-04-20T05:39:11;99980.34;;;5.50;76.92
40730;BME280;26418;50.070;8.436;2023-04-20T05:41:36;99983.59;;;5.47;76.78
40730;BME280;26418;50.070;8.436;2023-04-20T05:44:02;99981.38;;;5.33;76.93
40730;BME280;26418;50.070;8.436;2023-04-20T05:46:27;99983.78;;;5.30;77.04
40730;BME280;26418;50.070;8.436;2023-04-20T05:48:53;99997.47;;;5.28;77.44
40730;BME280;26418;50.070;8.436;2023-04-20T05:51:18;99983.50;;;5.21;78.14
40730;BME280;26418;50.070;8.436;2023-04-20T05:53:44;99989.69;;;5.27;78.26
40730;BME280;26418;50.070;8.436;2023-04-20T05:56:10;99996.13;;;5.31;78.33
40730;BME280;26418;50.070;8.436;2023-04-20T05:58:35;99991.88;;;5.35;78.81
40730;BME280;26418;50.070;8.436;2023-04-20T06:01:02;99985.97;;;5.38;77.80
40730;BME280;26418;50.070;8.436;2023-04-20T06:03:28;100000.16;;;5.33;77.27
40730;BME280;26418;50.070;8.436;2023-04-20T06:05:53;99996.41;;;5.29;77.89
40730;BME280;26418;50.070;8.436;2023-04-20T06:08:19;100002.56;;;5.30;77.98
40730;BME280;26418;50.070;8.436;2023-04-20T06:10:44;99997.75;;;5.32;78.73
40730;BME280;26418;50.070;8.436;2023-04-20T06:13:09;99995.09;;;5.42;77.81
40730;BME280;26418;50.070;8.436;2023-04-20T06:15:35;99986.50;;;5.35;78.16
40730;BME280;26418;50.070;8.436;2023-04-20T06:18:00;100002.63;;;5.45;78.31
40730;BME280;26418;50.070;8.436;2023-04-20T06:20:26;99983.56;;;5.42;78.36
40730;BME280;26418;50.070;8.436;2023-04-20T06:22:51;99998.06;;;5.51;77.93
40730;BME280;26418;50.070;8.436;2023-04-20T06:25:17;99994.59;;;5.50;78.32
40730;BME280;26418;50.070;8.436;2023-04-20T06:27:42;99988.13;;;5.46;78.79
40730;BME280;26418;50.070;8.436;2023-04-20T06:30:08;99993.75;;;5.50;79.22
40730;BME280;26418;50.070;8.436;2023-04-20T06:32:34;99995.94;;;5.58;79.09
40730;BME280;26418;50.070;8.436;2023-04-20T06:34:59;99993.00;;;5.65;78.24
40730;BME280;26418;50.070;8.436;2023-04-20T06:37:24;99987.88;;;5.58;78.20
40730;BME280;26418;50.070;8.436;2023-04-20T06:39:53;99998.66;;;5.63;79.81
40730;BME280;26418;50.070;8.436;2023-04-20T06:42:19;99993.56;;;5.72;78.08
40730;BME280;26418;50.070;8.436;2023-04-20T06:44:44;100000.53;;;5.68;78.17
40730;BME280;26418;50.070;8.436;2023-04-20T06:47:10;99998.63;;;5.69;79.69
40730;BME280;26418;50.070;8.436;2023-04-20T06:49:36;99991.13;;;5.71;79.83
40730;BME280;26418;50.070;8.436;2023-04-20T06:52:03;100000.03;;;5.87;79.49
40730;BME280;26418;50.070;8.436;2023-04-20T06:54:28;99993.84;;;5.96;79.73
40730;BME280;26418;50.070;8.436;2023-04-20T06:56:54;99994.41;;;6.09;79.50
40730;BME280;26418;50.070;8.436;2023-04-20T06:59:19;99997.91;;;6.25;78.61
40730;BME280;26418;50.070;8.436;2023-04-20T07:01:45;99998.19;;;6.18;77.70
40730;BME280;26418;50.070;8.436;2023-04-20T07:04:10;99982.63;;;6.15;78.42
40730;BME280;26418;50.070;8.436;2023-04-20T07:06:36;99986.63;;;6.23;77.91
40730;BME280;26418;50.070;8.436;2023-04-20T07:09:01;99981.00;;;6.29;78.33
40730;BME280;26418;50.070;8.436;2023-04-20T07:11:26;99980.47;;;6.33;78.25
40730;BME280;26418;50.070;8.436;2023-04-20T07:13:51;99971.84;;;6.36;78.93
40730;BME280;26418;50.070;8.436;2023-04-20T07:16:17;99981.22;;;6.49;78.48
40730;BME280;26418;50.070;8.436;2023-04-20T07:18:42;99971.31;;;6.49;77.56
40730;BME280;26418;50.070;8.436;2023-04-20T07:21:07;99957.59;;;6.40;77.80
40730;BME280;26418;50.070;8.436;2023-04-20T07:23:33;99968.06;;;6.47;77.94
40730;BME280;26418;50.070;8.436;2023-04-20T07:25:58;99962.72;;;6.47;76.72
40730;BME280;26418;50.070;8.436;2023-04-20T07:28:23;99963.28;;;6.34;77.58
40730;BME280;26418;50.070;8.436;2023-04-20T07:30:49;99978.56;;;6.33;77.33
40730;BME280;26418;50.070;8.436;2023-04-20T07:33:14;99962.75;;;6.16;77.10
40730;BME280;26418;50.070;8.436;2023-04-20T07:35:40;99978.56;;;6.33;77.90
40730;BME280;26418;50.070;8.436;2023-04-20T07:38:05;99970.78;;;6.26;77.87
40730;BME280;26418;50.070;8.436;2023-04-20T07:40:30;99980.47;;;6.22;78.34
40730;BME280;26418;50.070;8.436;2023-04-20T07:42:56;99971.59;;;6.22;78.71
40730;BME280;26418;50.070;8.436;2023-04-20T07:45:21;99983.41;;;6.41;79.16
40730;BME280;26418;50.070;8.436;2023-04-20T07:47:48;99989.81;;;6.56;77.87
40730;BME280;26418;50.070;8.436;2023-04-20T07:50:15;99991.41;;;6.67;76.57
40730;BME280;26418;50.070;8.436;2023-04-20T07:52:41;99983.88;;;6.74;78.38
40730;BME280;26418;50.070;8.436;2023-04-20T07:55:08;99985.72;;;6.89;76.71
40730;BME280;26418;50.070;8.436;2023-04-20T07:57:36;99984.31;;;7.02;75.96
40730;BME280;26418;50.070;8.436;2023-04-20T08:00:03;99971.41;;;7.04;74.59
40730;BME280;26418;50.070;8.436;2023-04-20T08:02:32;99980.00;;;7.12;74.21
40730;BME280;26418;50.070;8.436;2023-04-20T08:04:57;99985.84;;;7.24;74.89
40730;BME280;26418;50.070;8.436;2023-04-20T08:07:22;99979.09;;;7.27;73.62
40730;BME280;26418;50.070;8.436;2023-04-20T08:09:48;99981.28;;;7.24;73.13
40730;BME280;26418;50.070;8.436;2023-04-20T08:12:13;99974.78;;;7.31;72.71
40730;BME280;26418;50.070;8.436;2023-04-20T08:14:39;99982.22;;;7.49;73.30
40730;BME280;26418;50.070;8.436;2023-04-20T08:17:06;99984.75;;;7.75;72.03
40730;BME280;26418;50.070;8.436;2023-04-20T08:19:32;99972.50;;;7.93;70.49
40730;BME280;26418;50.070;8.436;2023-04-20T08:21:57;99981.53;;;8.13;69.71
40730;BME280;26418;50.070;8.436;2023-04-20T08:24:23;99972.78;;;8.26;69.64
40730;BME280;26418;50.070;8.436;2023-04-20T08:26:48;99966.22;;;8.38;68.75
40730;BME280;26418;50.070;8.436;2023-04-20T08:29:13;99961.84;;;8.42;69.17
40730;BME280;26418;50.070;8.436;2023-04-20T08:31:39;99961.25;;;8.50;69.06
40730;BME280;26418;50.070;8.436;2023-04-20T08:34:05;99970.78;;;8.67;68.28
40730;BME280;26418;50.070;8.436;2023-04-20T08:36:30;99961.63;;;8.68;66.75
40730;BME280;26418;50.070;8.436;2023-04-20T08:39:25;99964.28;;;8.73;66.95
40730;BME280;26418;50.070;8.436;2023-04-20T08:41:51;99964.34;;;8.87;66.72
40730;BME280;26418;50.070;8.436;2023-04-20T08:44:18;99971.53;;;8.96;66.37
40730;BME280;26418;50.070;8.436;2023-04-20T08:46:46;99957.19;;;9.01;65.26
40730;BME280;26418;50.070;8.436;2023-04-20T08:49:14;99964.44;;;9.06;64.56
40730;BME280;26418;50.070;8.436;2023-04-20T08:51:40;99953.41;;;9.02;64.96
40730;BME280;26418;50.070;8.436;2023-04-20T08:54:05;99952.16;;;8.94;64.79
40730;BME280;26418;50.070;8.436;2023-04-20T08:56:35;99949.53;;;8.89;64.99
40730;BME280;26418;50.070;8.436;2023-04-20T08:59:02;99957.88;;;8.88;65.61
40730;BME280;26418;50.070;8.436;2023-04-20T09:01:29;99941.88;;;8.72;65.69
40730;BME280;26418;50.070;8.436;2023-04-20T09:03:55;99941.66;;;8.69;65.66
40730;BME280;26418;50.070;8.436;2023-04-20T09:06:20;99957.28;;;8.72;66.64
40730;BME280;26418;50.070;8.436;2023-04-20T09:08:47;99939.94;;;8.78;66.15
40730;BME280;26418;50.070;8.436;2023-04-20T09:11:26;99951.09;;;8.90;65.91
40730;BME280;26418;50.070;8.436;2023-04-20T09:16:27;99941.69;;;9.12;65.09
40730;BME280;26418;50.070;8.436;2023-04-20T09:18:54;99938.78;;;9.27;64.70
40730;BME280;26418;50.070;8.436;2023-04-20T09:21:20;99942.56;;;9.26;64.71
40730;BME280;26418;50.070;8.436;2023-04-20T09:24:15;99941.19;;;9.48;64.55
40730;BME280;26418;50.070;8.436;2023-04-20T09:26:41;99935.47;;;9.69;63.39
40730;BME280;26418;50.070;8.436;2023-04-20T09:29:17;99919.41;;;9.78;63.09
40730;BME280;26418;50.070;8.436;2023-04-20T09:31:43;99928.50;;;10.15;62.86
40730;BME280;26418;50.070;8.436;2023-04-20T09:34:08;99928.66;;;10.37;61.70
40730;BME280;26418;50.070;8.436;2023-04-20T09:36:39;99931.19;;;10.48;60.67
40730;BME280;26418;50.070;8.436;2023-04-20T09:39:08;99924.00;;;10.57;60.91
40730;BME280;26418;50.070;8.436;2023-04-20T09:41:34;99921.19;;;10.62;59.71
40730;BME280;26418;50.070;8.436;2023-04-20T09:44:00;99910.66;;;10.75;60.43
40730;BME280;26418;50.070;8.436;2023-04-20T09:46:30;99910.94;;;10.87;59.80
40730;BME280;26418;50.070;8.436;2023-04-20T09:49:00;99905.50;;;11.15;58.37
40730;BME280;26418;50.070;8.436;2023-04-20T09:51:27;99903.88;;;11.14;58.81
40730;BME280;26418;50.070;8.436;2023-04-20T09:53:59;99902.47;;;11.16;58.94
40730;BME280;26418;50.070;8.436;2023-04-20T09:56:27;99896.75;;;11.32;57.26
40730;BME280;26418;50.070;8.436;2023-04-20T09:58:54;99888.00;;;11.35;57.20
40730;BME280;26418;50.070;8.436;2023-04-20T10:01:20;99877.69;;;11.23;57.15
40730;BME280;26418;50.070;8.436;2023-04-20T10:03:50;99878.94;;;11.40;56.85
40730;BME280;26418;50.070;8.436;2023-04-20T10:08:43;99876.56;;;12.06;55.29
40730;BME280;26418;50.070;8.436;2023-04-20T10:11:09;99871.22;;;12.33;53.59
40730;BME280;26418;50.070;8.436;2023-04-20T10:13:36;99848.38;;;12.74;52.24
40730;BME280;26418;50.070;8.436;2023-04-20T10:16:02;99853.69;;;13.05;51.09
40730;BME280;26418;50.070;8.436;2023-04-20T10:18:27;99840.28;;;13.09;50.05
40730;BME280;26418;50.070;8.436;2023-04-20T10:21:04;99852.13;;;13.40;49.30
40730;BME280;26418;50.070;8.436;2023-04-20T10:23:30;99837.72;;;13.39;49.81
40730;BME280;26418;50.070;8.436;2023-04-20T10:25:59;99827.47;;;13.27;50.15
40730;BME280;26418;50.070;8.436;2023-04-20T10:28:37;99837.56;;;13.44;49.34
40730;BME280;26418;50.070;8.436;2023-04-20T10:31:03;99829.72;;;13.51;48.82
40730;BME280;26418;50.070;8.436;2023-04-20T10:33:31;99837.69;;;13.57;48.10
40730;BME280;26418;50.070;8.436;2023-04-20T10:35:56;99814.38;;;13.47;48.14
40730;BME280;26418;50.070;8.436;2023-04-20T10:38:35;99830.53;;;13.43;48.69
40730;BME280;26418;50.070;8.436;2023-04-20T10:41:11;99825.09;;;13.26;49.31
40730;BME280;26418;50.070;8.436;2023-04-20T10:43:37;99829.72;;;12.99;49.65
40730;BME280;26418;50.070;8.436;2023-04-20T10:46:17;99816.97;;;12.99;49.26
40730;BME280;26418;50.070;8.436;2023-04-20T10:48:58;99814.72;;;13.10;48.72
40730;BME280;26418;50.070;8.436;2023-04-20T10:51:25;99822.38;;;12.90;49.05
40730;BME280;26418;50.070;8.436;2023-04-20T10:54:05;99807.66;;;12.65;48.50
40730;BME280;26418;50.070;8.436;2023-04-20T10:59:21;99815.31;;;12.63;49.23
40730;BME280;26418;50.070;8.436;2023-04-20T11:01:48;99808.91;;;12.50;48.83
40730;BME280;26418;50.070;8.436;2023-04-20T11:04:13;99811.91;;;12.31;49.87
40730;BME280;26418;50.070;8.436;2023-04-20T11:06:40;99814.22;;;12.15;51.17
40730;BME280;26418;50.070;8.436;2023-04-20T11:09:22;99807.63;;;11.99;52.94
40730;BME280;26418;50.070;8.436;2023-04-20T11:12:16;99801.03;;;12.31;51.15
40730;BME280;26418;50.070;8.436;2023-04-20T11:14:55;99774.78;;;12.84;49.02
40730;BME280;26418;50.070;8.436;2023-04-20T11:17:36;99768.38;;;13.15;48.47
40730;BME280;26418;50.070;8.436;2023-04-20T11:22:33;99779.88;;;12.68;50.38
40730;BME280;26418;50.070;8.436;2023-04-20T11:25:16;99777.75;;;12.39;51.91
40730;BME280;26418;50.070;8.436;2023-04-20T11:27:42;99777.69;;;12.13;51.73
40730;BME280;26418;50.070;8.436;2023-04-20T11:30:08;99780.97;;;11.92;52.33
40730;BME280;26418;50.070;8.436;2023-04-20T11:32:34;99779.75;;;11.75;52.68
40730;BME280;26418;50.070;8.436;2023-04-20T11:35:04;99783.69;;;11.69;52.94
40730;BME280;26418;50.070;8.436;2023-04-20T11:37:33;99768.03;;;11.57;53.76
40730;BME280;26418;50.070;8.436;2023-04-20T11:40:03;99775.38;;;11.57;52.35
40730;BME280;26418;50.070;8.436;2023-04-20T11:42:31;99772.38;;;11.36;52.28
40730;BME280;26418;50.070;8.436;2023-04-20T11:44:57;99775.66;;;11.24;52.94
40730;BME280;26418;50.070;8.436;2023-04-20T11:47:23;99775.81;;;11.05;53.83
40730;BME280;26418;50.070;8.436;2023-04-20T11:49:48;99763.41;;;11.04;54.90
40730;BME280;26418;50.070;8.436;2023-04-20T11:52:13;99761.72;;;11.39;55.58
40730;BME280;26418;50.070;8.436;2023-04-20T11:54:39;99778.63;;;12.08;53.71
40730;BME280;26418;50.070;8.436;2023-04-20T11:57:04;99765.34;;;12.73;52.69
40730;BME280;26418;50.070;8.436;2023-04-20T11:59:30;99748.59;;;13.06;51.65
40730;BME280;26418;50.070;8.436;2023-04-20T12:01:55;99764.72;;;13.29;50.31
40730;BME280;26418;50.070;8.436;2023-04-20T12:04:21;99757.81;;;13.23;49.90
40730;BME280;26418;50.070;8.436;2023-04-20T12:06:46;99748.91;;;13.13;49.04
40730;BME280;26418;50.070;8.436;2023-04-20T12:09:12;99750.50;;;13.05;50.32
40730;BME280;26418;50.070;8.436;2023-04-20T12:11:37;99749.06;;;12.90;52.51
40730;BME280;26418;50.070;8.436;2023-04-20T12:14:03;99749.22;;;13.20;52.72
40730;BME280;26418;50.070;8.436;2023-04-20T12:16:29;99749.34;;;13.50;51.98
40730;BME280;26418;50.070;8.436;2023-04-20T12:18:54;99740.94;;;13.73;52.28
40730;BME280;26418;50.070;8.436;2023-04-20T12:21:20;99738.75;;;13.96;51.16
40730;BME280;26418;50.070;8.436;2023-04-20T12:23:45;99746.41;;;14.33;49.23
40730;BME280;26418;50.070;8.436;2023-04-20T12:26:13;99734.97;;;14.19;46.62
40730;BME280;26418;50.070;8.436;2023-04-20T12:28:38;99752.34;;;14.05;48.44
40730;BME280;26418;50.070;8.436;2023-04-20T12:31:04;99742.44;;;14.01;50.22
40730;BME280;26418;50.070;8.436;2023-04-20T12:33:29;99737.69;;;13.89;50.98
40730;BME280;26418;50.070;8.436;2023-04-20T12:35:55;99726.38;;;13.78;49.22
40730;BME280;26418;50.070;8.436;2023-04-20T12:38:20;99725.78;;;13.72;48.82
40730;BME280;26418;50.070;8.436;2023-04-20T12:40:46;99726.84;;;13.80;47.78
40730;BME280;26418;50.070;8.436;2023-04-20T12:43:11;99728.78;;;13.79;48.55
40730;BME280;26418;50.070;8.436;2023-04-20T12:45:36;99717.47;;;13.68;49.27
40730;BME280;26418;50.070;8.436;2023-04-20T12:48:02;99720.94;;;13.78;53.48
40730;BME280;26418;50.070;8.436;2023-04-20T12:50:28;99719.03;;;13.78;55.76
40730;BME280;26418;50.070;8.436;2023-04-20T12:52:53;99719.16;;;13.82;57.10
40730;BME280;26418;50.070;8.436;2023-04-20T12:55:23;99706.97;;;13.58;52.94
40730;BME280;26418;50.070;8.436;2023-04-20T12:57:49;99703.88;;;13.12;55.06
40730;BME280;26418;50.070;8.436;2023-04-20T13:00:15;99723.03;;;13.07;54.64
40730;BME280;26418;50.070;8.436;2023-04-20T13:02:41;99716.34;;;12.87;52.54
40730;BME280;26418;50.070;8.436;2023-04-20T13:05:06;99722.59;;;12.79;51.64
40730;BME280;26418;50.070;8.436;2023-04-20T13:07:31;99718.94;;;12.74;51.39
40730;BME280;26418;50.070;8.436;2023-04-20T13:09:57;99718.13;;;12.74;50.10
40730;BME280;26418;50.070;8.436;2023-04-20T13:12:22;99714.75;;;12.86;49.94